CDT,Max TemperatureF,Mean TemperatureF,Min TemperatureF,Max Dew PointF,MeanDew PointF,Min DewpointF,Max Humidity, Mean Humidity, Min Humidity, Max Sea Level PressureIn, Mean Sea Level PressureIn, Min Sea Level PressureIn, Max VisibilityMiles, Mean VisibilityMiles, Min VisibilityMiles, Max Wind SpeedMPH, Mean Wind SpeedMPH, Max Gust SpeedMPH,PrecipitationIn, CloudCover, Events, WindDirDegrees
2012-10-1,65,52,37,47,36,28,81,53,26,30.02,29.98,29.89,10,10,7,18,11,25,0.00,0,,318
2012-10-2,70,51,32,34,29,25,89,46,18,29.97,29.83,29.72,10,10,10,23,6,29,0.00,0,,183
2012-10-3,57,46,36,42,36,27,80,62,37,29.96,29.89,29.80,10,9,2,16,5,25,0.00,2,Rain,351
2012-10-4,46,39,32,41,35,30,99,91,83,30.00,29.83,29.66,10,6,0,28,18,38,0.07,8,Rain-Snow-Thunderstorm,311
2012-10-5,34,32,31,32,30,28,99,91,85,30.17,30.05,29.98,10,5,1,29,20,38,0.00,8,Snow,295
2012-10-6,39,34,28,31,27,24,97,79,57,30.30,30.23,30.13,10,10,1,15,8,18,0.00,4,Snow,299
2012-10-7,51,40,30,27,24,20,82,56,30,30.12,29.92,29.73,10,10,10,15,7,23,0.00,3,,211
2012-10-8,44,42,39,42,33,24,93,74,48,29.73,29.59,29.47,10,10,5,18,7,23,0.04,7,Rain,211
2012-10-9,41,36,31,38,30,25,94,81,62,29.93,29.75,29.61,10,9,2,23,10,29,0.00,7,Rain-Snow,277
2012-10-10,42,34,27,33,29,26,100,82,54,29.99,29.94,29.90,10,8,1,15,7,20,0.15,6,Rain-Snow,254
2012-10-11,40,32,24,32,26,21,100,80,50,30.36,30.15,29.91,10,10,4,18,7,24,0.00,3,,297
2012-10-12,47,33,19,26,20,16,97,63,30,30.37,30.20,29.88,10,10,2,17,5,23,0.00,2,,166
2012-10-13,62,48,33,42,33,19,98,61,41,29.85,29.72,29.65,10,9,1,9,5,,0.00,1,,155
2012-10-14,54,42,29,39,33,29,99,76,40,29.90,29.85,29.79,10,9,2,14,4,,0.00,4,,314
2012-10-15,56,41,26,40,35,26,100,72,50,29.90,29.80,29.59,10,9,0,13,5,18,0.00,4,Fog,162
2012-10-16,70,59,48,45,42,37,80,57,33,29.58,29.45,29.32,10,10,7,12,6,,0.00,2,,178
2012-10-17,52,48,43,48,46,42,99,91,79,29.31,29.15,29.04,10,7,2,14,6,17,0.27,7,Rain,150
2012-10-18,49,46,42,49,45,40,98,95,91,29.44,29.23,29.14,10,7,2,18,8,25,0.26,8,Rain,351
2012-10-19,45,42,40,45,41,40,100,97,91,29.73,29.65,29.50,10,5,0,17,10,25,0.00,8,Fog-Rain,333
2012-10-20,48,44,39,44,42,40,100,92,79,29.73,29.71,29.68,10,6,0,13,5,18,0.00,7,Fog,166
2012-10-21,53,47,41,47,44,41,98,88,74,30.00,29.82,29.73,10,8,3,12,6,16,0.00,6,Rain,102
2012-10-22,52,44,37,43,38,36,98,76,54,30.08,30.02,29.93,10,9,2,16,7,21,0.01,6,Rain,49
2012-10-23,49,46,44,49,46,43,100,97,87,29.92,29.76,29.68,10,4,2,16,11,23,0.02,8,Rain-Thunderstorm,119
2012-10-24,50,42,34,50,41,33,100,95,88,29.96,29.87,29.73,10,7,2,14,7,21,0.00,8,Rain,300
2012-10-25,35,32,30,34,28,25,97,81,66,30.01,29.91,29.87,10,9,7,22,12,26,0.00,8,Rain-Snow,296
2012-10-26,33,30,28,28,22,18,88,70,55,30.24,30.17,30.01,10,9,2,22,15,31,0.00,8,Snow,267
2012-10-27,33,28,22,24,21,16,96,74,52,30.30,30.26,30.23,10,8,1,12,5,,0.00,6,Snow,264
2012-10-28,32,28,24,31,25,22,95,88,79,30.29,30.27,30.25,10,8,1,12,6,,0.03,8,Snow,68
2012-10-29,43,38,32,32,29,25,96,76,50,30.25,30.23,30.19,10,8,7,16,9,20,0.00,6,,119
2012-10-30,42,33,24,32,29,22,95,80,64,30.24,30.19,30.09,10,9,7,10,6,,0.00,2,,111
2012-10-31,48,34,20,33,26,18,93,73,42,30.11,30.00,29.92,10,9,7,14,1,20,0.00,5,,318